createdAt,value
2023-05-14T00:00:25.217Z,100766.53
2023-05-14T00:03:27.909Z,100761.38
2023-05-14T00:06:30.060Z,100759.47
2023-05-14T00:09:32.923Z,100755.47
2023-05-14T00:12:34.858Z,100746.19
2023-05-14T00:15:37.252Z,100747.25
2023-05-14T00:18:39.483Z,100746.19
2023-05-14T00:21:41.786Z,100743.56
2023-05-14T00:24:43.766Z,100741.87
2023-05-14T00:27:46.008Z,100740.91
2023-05-14T00:30:47.988Z,100740.50
2023-05-14T00:33:50.748Z,100739.25
2023-05-14T00:36:52.816Z,100730.16
2023-05-14T00:39:54.999Z,100736.34
2023-05-14T00:42:56.993Z,100731.41
2023-05-14T00:45:59.289Z,100723.31
2023-05-14T00:49:01.426Z,100723.53
2023-05-14T00:52:04.051Z,100723.03
2023-05-14T00:55:06.533Z,100718.47
2023-05-14T00:58:12.991Z,100710.06
2023-05-14T01:01:15.359Z,100710.69
2023-05-14T01:04:17.772Z,100706.28
2023-05-14T01:07:25.678Z,100700.16
2023-05-14T01:10:32.545Z,100698.34
2023-05-14T01:13:40.088Z,100693.59
2023-05-14T01:16:43.625Z,100696.56
2023-05-14T01:19:47.255Z,100700.22
2023-05-14T01:22:49.479Z,100687.81
2023-05-14T01:25:51.529Z,100692.22
2023-05-14T01:28:56.509Z,100689.38
2023-05-14T01:32:00.997Z,100688.34
2023-05-14T01:35:04.031Z,100674.13
2023-05-14T01:38:07.494Z,100671.69
2023-05-14T01:41:09.929Z,100670.87
2023-05-14T01:44:12.199Z,100673.63
2023-05-14T01:47:14.470Z,100663.66
2023-05-14T01:50:16.731Z,100656.28
2023-05-14T01:53:18.988Z,100645.44
2023-05-14T01:56:23.401Z,100640.06
2023-05-14T01:59:25.775Z,100638.38
2023-05-14T02:02:27.752Z,100624.56
2023-05-14T02:05:30.034Z,100630.31
2023-05-14T02:08:32.035Z,100631.00
2023-05-14T02:11:34.517Z,100627.56
2023-05-14T02:14:36.815Z,100629.28
2023-05-14T02:17:38.940Z,100626.63
2023-05-14T02:20:41.271Z,100627.37
2023-05-14T02:23:44.166Z,100639.06
2023-05-14T02:26:46.505Z,100626.44
2023-05-14T02:29:48.560Z,100631.91
2023-05-14T02:32:50.949Z,100632.66
2023-05-14T02:35:53.250Z,100629.34
2023-05-14T02:38:55.537Z,100624.41
2023-05-14T02:41:57.554Z,100630.44
2023-05-14T02:44:59.921Z,100624.34
2023-05-14T02:48:01.933Z,100623.28
2023-05-14T02:51:05.705Z,100624.41
2023-05-14T02:54:07.709Z,100626.84
2023-05-14T02:57:09.990Z,100624.72
2023-05-14T03:00:12.261Z,100622.50
2023-05-14T03:03:15.221Z,100614.06
2023-05-14T03:06:17.840Z,100618.25
2023-05-14T03:09:20.172Z,100614.81
2023-05-14T03:12:22.515Z,100616.81
2023-05-14T03:15:24.920Z,100620.53
2023-05-14T03:18:28.379Z,100614.44
2023-05-14T03:21:31.309Z,100617.63
2023-05-14T03:24:33.555Z,100621.41
2023-05-14T03:27:36.163Z,100614.88
2023-05-14T03:30:38.585Z,100617.28
2023-05-14T03:33:41.195Z,100611.00
2023-05-14T03:36:43.421Z,100607.81
2023-05-14T03:39:45.726Z,100605.94
2023-05-14T03:42:47.737Z,100608.34
2023-05-14T03:45:52.543Z,100611.19
2023-05-14T03:48:54.822Z,100617.00
2023-05-14T03:51:59.365Z,100610.78
2023-05-14T03:55:01.476Z,100607.72
2023-05-14T03:58:05.856Z,100598.47
2023-05-14T04:01:07.928Z,100603.09
2023-05-14T04:04:10.583Z,100604.78
2023-05-14T04:07:12.630Z,100605.84
2023-05-14T04:10:15.463Z,100607.31
2023-05-14T04:13:17.512Z,100605.41
2023-05-14T04:16:20.181Z,100603.72
2023-05-14T04:19:23.094Z,100599.84
2023-05-14T04:22:25.404Z,100600.47
2023-05-14T04:25:27.418Z,100598.25
2023-05-14T04:28:29.689Z,100595.41
2023-05-14T04:31:32.225Z,100589.41
2023-05-14T04:34:34.590Z,100592.56
2023-05-14T04:37:36.987Z,100591.84
2023-05-14T04:40:39.236Z,100588.47
2023-05-14T04:43:41.466Z,100592.78
2023-05-14T04:46:43.714Z,100597.13
2023-05-14T04:49:45.725Z,100590.47
2023-05-14T04:52:47.980Z,100594.47
2023-05-14T04:55:49.959Z,100592.69
2023-05-14T04:58:52.249Z,100598.03
2023-05-14T05:01:54.228Z,100595.72
2023-05-14T05:04:56.456Z,100587.50
2023-05-14T05:07:58.564Z,100590.13
2023-05-14T05:11:00.824Z,100582.56
2023-05-14T05:14:02.912Z,100585.84
2023-05-14T05:17:05.158Z,100584.66
2023-05-14T05:20:09.725Z,100580.78
2023-05-14T05:23:11.936Z,100592.38
2023-05-14T05:26:13.829Z,100583.75
2023-05-14T05:29:19.037Z,100574.28
2023-05-14T05:32:21.209Z,100577.19
2023-05-14T05:35:23.505Z,100579.50
2023-05-14T05:38:25.698Z,100583.31
2023-05-14T05:41:27.985Z,100587.41
2023-05-14T05:44:29.928Z,100574.97
2023-05-14T05:47:32.202Z,100577.81
2023-05-14T05:50:34.141Z,100580.91
2023-05-14T05:53:36.548Z,100586.78
2023-05-14T05:56:38.466Z,100584.06
2023-05-14T05:59:40.691Z,100586.06
2023-05-14T06:02:43.179Z,100587.94
2023-05-14T06:05:46.818Z,100588.12
2023-05-14T06:08:49.101Z,100584.12
2023-05-14T06:11:51.373Z,100588.38
2023-05-14T06:14:57.842Z,100590.13
2023-05-14T06:18:00.085Z,100585.00
2023-05-14T06:21:02.100Z,100585.75
2023-05-14T06:24:04.570Z,100597.94
2023-05-14T06:27:06.643Z,100595.63
2023-05-14T06:30:09.181Z,100600.66
2023-05-14T06:33:13.333Z,100602.25
2023-05-14T06:36:15.655Z,100599.09
2023-05-14T06:39:17.589Z,100598.53
2023-05-14T06:42:19.849Z,100598.03
2023-05-14T06:45:22.491Z,100594.97
2023-05-14T06:48:27.635Z,100585.16
2023-05-14T06:51:29.810Z,100578.84
2023-05-14T06:54:32.085Z,100583.88
2023-05-14T06:57:34.598Z,100577.44
2023-05-14T07:00:36.823Z,100571.06
2023-05-14T07:03:39.065Z,100566.06
2023-05-14T07:06:41.370Z,100565.94
2023-05-14T07:09:43.337Z,100566.13
2023-05-14T07:12:45.778Z,100562.75
2023-05-14T07:15:47.656Z,100553.09
2023-05-14T07:18:49.926Z,100555.22
2023-05-14T07:21:51.903Z,100542.53
2023-05-14T07:24:54.214Z,100540.91
2023-05-14T07:27:56.253Z,100537.56
2023-05-14T07:30:58.530Z,100542.53
2023-05-14T07:34:00.719Z,100539.28
2023-05-14T07:37:03.506Z,100533.19
2023-05-14T07:40:05.705Z,100533.94
2023-05-14T07:43:07.943Z,100538.16
2023-05-14T07:46:09.961Z,100530.84
2023-05-14T07:49:12.222Z,100535.72
2023-05-14T07:52:14.152Z,100536.94
2023-05-14T07:55:16.970Z,100519.41
2023-05-14T07:58:18.952Z,100520.38
2023-05-14T08:01:21.180Z,100515.56
2023-05-14T08:04:23.487Z,100515.75
2023-05-14T08:07:27.319Z,100509.69
2023-05-14T08:10:29.661Z,100509.31
2023-05-14T08:13:32.044Z,100499.59
2023-05-14T08:16:34.463Z,100493.25
2023-05-14T08:19:36.467Z,100489.62
2023-05-14T08:22:38.711Z,100486.28
2023-05-14T08:25:40.701Z,100484.13
2023-05-14T08:28:42.931Z,100475.72
2023-05-14T08:31:44.868Z,100472.16
2023-05-14T08:34:47.122Z,100472.06
2023-05-14T08:37:50.175Z,100470.84
2023-05-14T08:40:59.070Z,100475.84
2023-05-14T08:44:06.952Z,100466.25
2023-05-14T08:47:10.377Z,100458.22
2023-05-14T08:50:12.572Z,100461.81
2023-05-14T08:53:14.935Z,100452.16
2023-05-14T08:56:18.180Z,100458.78
2023-05-14T08:59:20.636Z,100461.56
2023-05-14T09:02:28.643Z,100464.56
2023-05-14T09:05:30.879Z,100456.06
2023-05-14T09:08:33.302Z,100456.81
2023-05-14T09:11:40.806Z,100462.31
2023-05-14T09:14:43.898Z,100455.97
2023-05-14T09:17:47.953Z,100457.25
2023-05-14T09:20:52.014Z,100454.75
2023-05-14T09:23:56.848Z,100449.81
2023-05-14T09:26:58.787Z,100449.38
2023-05-14T09:30:05.086Z,100435.44
2023-05-14T09:33:10.222Z,100434.97
2023-05-14T09:36:12.658Z,100429.53
2023-05-14T09:39:14.611Z,100424.34
2023-05-14T09:42:16.965Z,100429.75
2023-05-14T09:45:19.108Z,100422.81
2023-05-14T09:48:22.413Z,100407.25
2023-05-14T09:51:24.469Z,100408.31
2023-05-14T09:54:27.321Z,100402.91
2023-05-14T09:57:29.303Z,100406.84
2023-05-14T10:00:32.551Z,100407.47
2023-05-14T10:03:35.155Z,100399.91
2023-05-14T10:06:38.079Z,100386.97
2023-05-14T10:09:41.580Z,100368.50
2023-05-14T10:12:46.192Z,100357.69
2023-05-14T10:15:49.403Z,100355.78
2023-05-14T10:18:57.054Z,100340.38
2023-05-14T10:22:11.472Z,100331.25
2023-05-14T10:25:13.570Z,100319.16
2023-05-14T10:28:16.105Z,100296.19
2023-05-14T10:31:18.085Z,100290.38
2023-05-14T10:34:44.023Z,100309.69
2023-05-14T10:37:46.891Z,100335.78
2023-05-14T10:40:50.317Z,100338.84
2023-05-14T10:43:53.662Z,100325.66
2023-05-14T10:46:56.302Z,100326.31
2023-05-14T10:49:59.425Z,100331.66
2023-05-14T10:53:02.519Z,100330.03
2023-05-14T10:56:08.894Z,100322.69
2023-05-14T10:59:11.881Z,100324.75
2023-05-14T11:02:24.640Z,100308.19
2023-05-14T11:05:27.751Z,100314.03
2023-05-14T11:08:30.979Z,100311.16
2023-05-14T11:11:33.284Z,100307.56
2023-05-14T11:14:35.261Z,100303.12
2023-05-14T11:17:38.348Z,100302.94
2023-05-14T11:20:40.517Z,100291.44
2023-05-14T11:23:46.193Z,100295.59
2023-05-14T11:26:48.185Z,100300.88
2023-05-14T11:29:50.845Z,100294.69
2023-05-14T11:32:54.160Z,100290.38
2023-05-14T11:35:56.481Z,100293.19
2023-05-14T11:38:58.500Z,100296.00
2023-05-14T11:42:03.247Z,100302.84
2023-05-14T11:45:05.940Z,100298.19
2023-05-14T11:48:17.971Z,100288.09
2023-05-14T11:51:21.052Z,100286.91
2023-05-14T11:54:25.060Z,100290.03
2023-05-14T11:57:27.045Z,100282.97
2023-05-14T12:00:29.860Z,100282.47
2023-05-14T12:03:32.237Z,100273.72
2023-05-14T12:06:34.374Z,100272.91
2023-05-14T12:09:38.826Z,100255.50
2023-05-14T12:12:40.829Z,100259.22
2023-05-14T12:15:47.064Z,100260.63
2023-05-14T12:18:49.144Z,100254.19
2023-05-14T12:21:51.480Z,100244.94
2023-05-14T12:24:57.258Z,100236.16
2023-05-14T12:27:59.528Z,100232.59
2023-05-14T12:31:01.517Z,100236.66
2023-05-14T12:34:04.252Z,100233.34
2023-05-14T12:37:06.813Z,100234.22
2023-05-14T12:40:12.589Z,100237.94
2023-05-14T12:43:14.766Z,100240.34
2023-05-14T12:46:17.211Z,100232.81
2023-05-14T12:49:19.648Z,100242.47
2023-05-14T12:52:33.330Z,100234.56
2023-05-14T12:55:39.235Z,100229.41
2023-05-14T12:58:41.493Z,100211.94
2023-05-14T13:01:43.833Z,100212.75
2023-05-14T13:04:46.093Z,100202.94
2023-05-14T13:07:48.055Z,100198.75
2023-05-14T13:10:50.894Z,100182.47
2023-05-14T13:13:52.825Z,100177.19
2023-05-14T13:16:55.928Z,100189.44
2023-05-14T13:19:58.092Z,100180.06
2023-05-14T13:23:00.408Z,100176.50
2023-05-14T13:26:02.375Z,100172.06
2023-05-14T13:29:06.879Z,100165.47
2023-05-14T13:32:08.966Z,100157.09
2023-05-14T13:35:11.666Z,100152.87
2023-05-14T13:38:13.799Z,100149.66
2023-05-14T13:41:16.055Z,100146.69
2023-05-14T13:44:17.975Z,100137.44
2023-05-14T13:47:20.263Z,100136.63
2023-05-14T13:50:22.251Z,100135.31
2023-05-14T13:53:25.031Z,100126.31
2023-05-14T13:56:27.018Z,100115.31
2023-05-14T13:59:29.375Z,100117.38
2023-05-14T14:02:32.251Z,100114.84
2023-05-14T14:05:36.213Z,100115.06
2023-05-14T14:08:38.318Z,100115.56
2023-05-14T14:11:41.037Z,100109.47
2023-05-14T14:14:43.007Z,100104.09
2023-05-14T14:17:45.394Z,100101.31
2023-05-14T14:20:47.530Z,100103.94
2023-05-14T14:23:49.790Z,100108.97
2023-05-14T14:26:51.712Z,100107.44
2023-05-14T14:29:53.978Z,100109.72
2023-05-14T14:32:56.100Z,100106.72
2023-05-14T14:35:58.406Z,100111.37
2023-05-14T14:39:00.570Z,100108.13
2023-05-14T14:42:05.132Z,100100.63
2023-05-14T14:45:07.337Z,100093.06
2023-05-14T14:48:22.673Z,100091.16
2023-05-14T14:51:24.671Z,100087.94
2023-05-14T14:54:26.908Z,100087.09
2023-05-14T14:57:28.941Z,100087.19
2023-05-14T15:00:31.223Z,100085.19
2023-05-14T15:03:33.414Z,100078.00
2023-05-14T15:06:35.815Z,100074.37
2023-05-14T15:09:37.818Z,100065.91
2023-05-14T15:12:40.233Z,100066.59
2023-05-14T15:15:42.377Z,100059.56
2023-05-14T15:18:44.641Z,100059.69
2023-05-14T15:21:46.610Z,100055.25
2023-05-14T15:24:48.867Z,100052.97
2023-05-14T15:27:50.797Z,100062.78
2023-05-14T15:30:53.156Z,100049.12
2023-05-14T15:33:56.008Z,100046.41
2023-05-14T15:36:58.307Z,100053.91
2023-05-14T15:40:00.291Z,100056.69
2023-05-14T15:43:02.505Z,100050.59
2023-05-14T15:46:04.541Z,100054.16
2023-05-14T15:49:06.843Z,100049.97
2023-05-14T15:52:08.797Z,100037.66
2023-05-14T15:55:11.072Z,100026.41
2023-05-14T15:58:13.014Z,100005.50
2023-05-14T16:01:15.411Z,100005.50
2023-05-14T16:04:17.634Z,99995.81
2023-05-14T16:07:19.786Z,99987.22
2023-05-14T16:10:22.463Z,99982.19
2023-05-14T16:13:24.572Z,99988.97
2023-05-14T16:16:26.858Z,99988.38
2023-05-14T16:19:29.111Z,99995.44
2023-05-14T16:22:32.752Z,99990.31
2023-05-14T16:25:35.111Z,99998.94
2023-05-14T16:28:41.175Z,99997.84
2023-05-14T16:31:43.416Z,100000.59
2023-05-14T16:34:49.678Z,100001.06
2023-05-14T16:37:51.780Z,99991.41
2023-05-14T16:40:54.125Z,99979.44
2023-05-14T16:43:56.144Z,99988.16
2023-05-14T16:46:58.423Z,99968.94
2023-05-14T16:50:00.467Z,99964.03
2023-05-14T16:53:02.770Z,99956.81
2023-05-14T16:56:04.941Z,99946.78
2023-05-14T16:59:07.555Z,99954.56
2023-05-14T17:02:10.043Z,99944.16
2023-05-14T17:05:12.339Z,99947.03
2023-05-14T17:08:14.581Z,99945.72
2023-05-14T17:11:16.957Z,99934.59
2023-05-14T17:14:19.243Z,99945.25
2023-05-14T17:17:21.486Z,99945.13
2023-05-14T17:20:23.512Z,99931.38
2023-05-14T17:23:25.938Z,99927.03
2023-05-14T17:26:28.272Z,99918.47
2023-05-14T17:29:30.607Z,99911.63
2023-05-14T17:32:32.651Z,99915.69
2023-05-14T17:35:36.344Z,99910.09
2023-05-14T17:38:39.441Z,99905.56
2023-05-14T17:41:44.652Z,99898.62
2023-05-14T17:44:46.653Z,99895.75
2023-05-14T17:47:49.148Z,99905.91
2023-05-14T17:50:54.052Z,99906.38
2023-05-14T17:53:56.362Z,99907.22
2023-05-14T17:56:58.553Z,99895.84
2023-05-14T18:00:00.839Z,99893.56
2023-05-14T18:03:02.854Z,99877.53
2023-05-14T18:06:05.343Z,99879.09
2023-05-14T18:09:07.563Z,99882.06
2023-05-14T18:12:09.953Z,99880.75
2023-05-14T18:15:11.882Z,99879.75
2023-05-14T18:18:17.086Z,99870.56
2023-05-14T18:21:19.089Z,99878.69
2023-05-14T18:24:22.238Z,99887.31
2023-05-14T18:27:24.300Z,99877.78
2023-05-14T18:30:26.546Z,99881.13
2023-05-14T18:33:28.506Z,99873.47
2023-05-14T18:36:30.849Z,99874.41
2023-05-14T18:39:32.831Z,99877.19
2023-05-14T18:42:35.176Z,99869.91
2023-05-14T18:45:37.139Z,99867.50
2023-05-14T18:48:39.414Z,99879.47
2023-05-14T18:51:41.422Z,99887.56
2023-05-14T18:54:43.691Z,99891.91
2023-05-14T18:57:45.984Z,99879.00
2023-05-14T19:00:48.363Z,99886.97
2023-05-14T19:03:50.436Z,99886.41
2023-05-14T19:06:53.062Z,99883.34
2023-05-14T19:09:55.028Z,99894.03
2023-05-14T19:12:57.643Z,99893.19
2023-05-14T19:16:00.115Z,99883.94
2023-05-14T19:19:02.570Z,99871.75
2023-05-14T19:22:04.686Z,99865.75
2023-05-14T19:25:08.157Z,99872.94
2023-05-14T19:28:10.733Z,99867.41
2023-05-14T19:31:13.040Z,99866.09
2023-05-14T19:34:15.033Z,99861.28
2023-05-14T19:37:17.349Z,99857.72
2023-05-14T19:40:19.356Z,99862.50
2023-05-14T19:43:21.606Z,99866.09
2023-05-14T19:46:23.548Z,99856.22
2023-05-14T19:49:25.768Z,99848.63
2023-05-14T19:52:27.713Z,99855.19
2023-05-14T19:55:30.453Z,99848.81
2023-05-14T19:58:32.394Z,99850.75
2023-05-14T20:01:34.844Z,99854.56
2023-05-14T20:04:40.007Z,99849.03
2023-05-14T20:07:42.585Z,99847.87
2023-05-14T20:10:45.157Z,99841.66
2023-05-14T20:13:47.470Z,99847.31
2023-05-14T20:16:49.838Z,99843.91
2023-05-14T20:19:52.235Z,99833.03
2023-05-14T20:22:54.529Z,99843.81
2023-05-14T20:25:56.581Z,99839.78
2023-05-14T20:28:58.838Z,99836.78
2023-05-14T20:32:00.952Z,99834.06
2023-05-14T20:35:03.313Z,99831.13
2023-05-14T20:38:05.323Z,99818.03
2023-05-14T20:41:07.950Z,99819.81
2023-05-14T20:44:09.881Z,99806.19
2023-05-14T20:47:16.263Z,99798.69
2023-05-14T20:50:18.307Z,99793.09
2023-05-14T20:53:20.957Z,99784.97
2023-05-14T20:56:23.102Z,99793.69
2023-05-14T20:59:25.436Z,99794.25
2023-05-14T21:02:27.862Z,99781.56
2023-05-14T21:05:30.267Z,99767.41
2023-05-14T21:08:35.790Z,99768.41
2023-05-14T21:11:38.068Z,99764.31
2023-05-14T21:14:40.197Z,99765.63
2023-05-14T21:17:42.596Z,99767.81
2023-05-14T21:20:44.605Z,99765.88
2023-05-14T21:23:46.945Z,99758.81
2023-05-14T21:26:48.947Z,99745.47
2023-05-14T21:29:51.249Z,99752.19
2023-05-14T21:32:53.224Z,99742.75
2023-05-14T21:35:55.608Z,99745.72
2023-05-14T21:38:57.649Z,99724.66
2023-05-14T21:42:00.009Z,99713.78
2023-05-14T21:45:02.193Z,99704.03
2023-05-14T21:48:04.764Z,99702.25
2023-05-14T21:51:07.130Z,99691.59
2023-05-14T21:54:09.716Z,99690.34
2023-05-14T21:57:11.720Z,99692.81
2023-05-14T22:00:18.487Z,99692.41
2023-05-14T22:03:21.007Z,99690.31
2023-05-14T22:06:23.170Z,99700.53
2023-05-14T22:09:25.819Z,99706.19
2023-05-14T22:12:27.855Z,99706.81
2023-05-14T22:15:30.129Z,99712.59
2023-05-14T22:18:32.399Z,99723.06
2023-05-14T22:21:34.672Z,99716.94
2023-05-14T22:24:39.673Z,99713.09
2023-05-14T22:27:41.924Z,99711.50
2023-05-14T22:30:43.832Z,99716.34
2023-05-14T22:33:46.248Z,99704.28
2023-05-14T22:36:48.227Z,99700.50
2023-05-14T22:39:50.508Z,99705.88
2023-05-14T22:42:52.570Z,99702.00
2023-05-14T22:45:54.897Z,99700.31
2023-05-14T22:48:56.936Z,99707.38
2023-05-14T22:51:59.336Z,99710.06
2023-05-14T22:55:01.238Z,99710.91
2023-05-14T22:58:03.940Z,99699.69
2023-05-14T23:01:05.953Z,99704.94
2023-05-14T23:04:08.242Z,99704.22
2023-05-14T23:07:10.613Z,99700.25
2023-05-14T23:10:15.986Z,99692.47
2023-05-14T23:13:19.088Z,99696.53
2023-05-14T23:16:21.339Z,99684.56
2023-05-14T23:19:23.494Z,99676.59
2023-05-14T23:22:25.767Z,99672.03
2023-05-14T23:25:28.016Z,99671.53
2023-05-14T23:28:30.605Z,99658.19
2023-05-14T23:31:32.719Z,99652.13
2023-05-14T23:34:34.975Z,99649.97
2023-05-14T23:37:41.625Z,99635.97
2023-05-14T23:40:43.956Z,99643.44
2023-05-14T23:43:45.937Z,99648.72
2023-05-14T23:46:48.355Z,99641.91
2023-05-14T23:49:50.364Z,99630.00
2023-05-14T23:52:53.139Z,99626.81
2023-05-14T23:55:55.123Z,99616.59
2023-05-14T23:58:57.503Z,99613.81
